createdAt,value
2022-12-18T00:01:28.711Z,24.10
2022-12-18T00:03:59.578Z,24.03
2022-12-18T00:06:31.189Z,23.98
2022-12-18T00:09:02.233Z,23.96
2022-12-18T00:11:33.917Z,23.95
2022-12-18T00:14:03.843Z,23.89
2022-12-18T00:16:35.073Z,23.88
2022-12-18T00:19:05.349Z,23.79
2022-12-18T00:21:35.893Z,23.76
2022-12-18T00:24:06.345Z,23.73
2022-12-18T00:26:38.088Z,23.72
2022-12-18T00:29:19.324Z,23.63
2022-12-18T00:31:50.766Z,23.57
2022-12-18T00:34:20.946Z,23.47
2022-12-18T00:36:51.039Z,23.45
2022-12-18T00:39:20.623Z,23.34
2022-12-18T00:42:09.110Z,23.25
2022-12-18T00:44:39.193Z,23.13
2022-12-18T00:47:09.919Z,22.99
2022-12-18T00:49:39.855Z,22.84
2022-12-18T00:52:09.365Z,22.74
2022-12-18T00:54:38.952Z,22.64
2022-12-18T00:57:08.940Z,22.59
2022-12-18T00:59:38.641Z,22.55
2022-12-18T01:02:08.269Z,22.51
2022-12-18T01:04:38.647Z,22.48
2022-12-18T01:07:08.165Z,22.48
2022-12-18T01:09:40.310Z,22.46
2022-12-18T01:12:10.500Z,22.45
2022-12-18T01:14:40.330Z,22.41
2022-12-18T01:17:09.942Z,22.35
2022-12-18T01:19:39.450Z,22.31
2022-12-18T01:22:12.209Z,22.21
2022-12-18T01:24:42.393Z,22.12
2022-12-18T01:27:12.419Z,22.09
2022-12-18T01:29:42.746Z,22.09
2022-12-18T01:32:12.652Z,22.08
2022-12-18T01:34:42.167Z,22.01
2022-12-18T01:37:12.510Z,21.88
2022-12-18T01:39:43.290Z,21.81
2022-12-18T01:42:19.058Z,21.83
2022-12-18T01:44:59.326Z,21.81
2022-12-18T01:47:51.995Z,21.74
2022-12-18T01:50:34.226Z,21.67
2022-12-18T01:53:13.923Z,21.63
2022-12-18T01:55:56.414Z,21.56
2022-12-18T01:59:00.091Z,21.43
2022-12-18T02:01:32.970Z,21.46
2022-12-18T02:04:24.705Z,21.47
2022-12-18T02:07:22.357Z,21.34
2022-12-18T02:10:02.953Z,21.36
2022-12-18T02:13:15.883Z,21.34
2022-12-18T02:16:09.386Z,21.42
2022-12-18T02:18:44.662Z,21.39
2022-12-18T02:21:34.154Z,21.42
2022-12-18T02:38:19.298Z,21.30
2022-12-18T02:40:54.404Z,21.27
2022-12-18T02:43:25.807Z,21.32
2022-12-18T02:46:01.212Z,21.39
2022-12-18T02:48:37.206Z,21.43
2022-12-18T02:54:34.199Z,21.32
2022-12-18T02:57:22.197Z,21.18
2022-12-18T03:00:04.913Z,21.23
2022-12-18T03:03:03.894Z,21.39
2022-12-18T03:05:53.728Z,21.36
2022-12-18T03:08:25.563Z,21.26
2022-12-18T03:11:02.821Z,21.18
2022-12-18T03:13:40.186Z,21.23
2022-12-18T03:16:14.757Z,21.25
2022-12-18T03:18:54.634Z,21.22
2022-12-18T03:21:30.815Z,21.19
2022-12-18T03:24:02.193Z,21.07
2022-12-18T03:26:33.009Z,20.96
2022-12-18T03:29:14.089Z,20.86
2022-12-18T03:31:47.893Z,20.79
2022-12-18T03:34:24.135Z,20.88
2022-12-18T03:36:53.930Z,20.92
2022-12-18T03:39:27.258Z,20.98
2022-12-18T03:42:31.741Z,21.07
2022-12-18T03:45:14.139Z,21.09
2022-12-18T03:47:55.810Z,21.06
2022-12-18T03:50:41.830Z,21.05
2022-12-18T03:53:52.069Z,20.96
2022-12-18T03:56:28.916Z,20.85
2022-12-18T03:59:03.422Z,20.79
2022-12-18T04:01:43.296Z,20.71
2022-12-18T04:04:18.197Z,20.68
2022-12-18T04:06:50.512Z,20.72
2022-12-18T04:09:23.155Z,20.82
2022-12-18T04:11:54.840Z,20.88
2022-12-18T04:14:25.975Z,20.84
2022-12-18T04:16:59.601Z,20.76
2022-12-18T04:19:33.663Z,20.79
2022-12-18T04:22:05.702Z,20.84
2022-12-18T04:24:42.804Z,20.81
2022-12-18T04:27:19.958Z,20.71
2022-12-18T04:29:52.401Z,20.71
2022-12-18T04:32:22.453Z,20.74
2022-12-18T04:34:52.653Z,20.79
2022-12-18T04:37:22.259Z,20.74
2022-12-18T04:39:53.260Z,20.69
2022-12-18T04:42:29.819Z,20.68
2022-12-18T04:45:00.402Z,20.69
2022-12-18T04:47:29.924Z,20.67
2022-12-18T04:49:59.402Z,20.64
2022-12-18T04:52:29.246Z,20.58
2022-12-18T04:54:58.796Z,20.58
2022-12-18T04:57:28.624Z,20.61
2022-12-18T04:59:58.089Z,20.71
2022-12-18T05:02:28.018Z,20.67
2022-12-18T05:04:57.586Z,20.74
2022-12-18T05:07:27.263Z,20.82
2022-12-18T05:09:56.791Z,20.95
2022-12-18T05:12:27.034Z,21.22
2022-12-18T05:14:56.520Z,21.54
2022-12-18T05:17:26.487Z,21.75
2022-12-18T05:19:55.944Z,22.00
2022-12-18T05:22:25.466Z,22.06
2022-12-18T05:24:54.991Z,22.14
2022-12-18T05:27:24.493Z,22.18
2022-12-18T05:29:54.008Z,22.14
2022-12-18T05:32:23.530Z,22.31
2022-12-18T05:34:52.992Z,22.35
2022-12-18T05:37:22.954Z,22.31
2022-12-18T05:39:52.444Z,22.22
2022-12-18T05:42:22.142Z,22.18
2022-12-18T05:44:51.667Z,22.16
2022-12-18T05:47:21.177Z,22.08
2022-12-18T05:49:50.651Z,22.08
2022-12-18T05:52:20.124Z,22.00
2022-12-18T05:54:49.866Z,21.98
2022-12-18T05:57:19.629Z,21.98
2022-12-18T05:59:49.097Z,21.97
2022-12-18T06:02:18.734Z,21.94
2022-12-18T06:04:48.327Z,22.01
2022-12-18T06:07:17.805Z,22.05
2022-12-18T06:09:47.537Z,22.06
2022-12-18T06:12:17.052Z,22.14
2022-12-18T06:14:46.929Z,22.09
2022-12-18T06:17:16.412Z,22.02
2022-12-18T06:19:45.888Z,21.91
2022-12-18T06:22:15.403Z,21.75
2022-12-18T06:24:45.085Z,21.57
2022-12-18T06:27:14.565Z,21.36
2022-12-18T06:29:44.437Z,21.36
2022-12-18T06:32:14.113Z,21.29
2022-12-18T06:34:43.579Z,21.27
2022-12-18T06:37:13.162Z,21.19
2022-12-18T06:39:42.644Z,21.12
2022-12-18T06:42:12.138Z,21.02
2022-12-18T06:44:41.640Z,20.95
2022-12-18T06:47:11.123Z,20.92
2022-12-18T06:49:41.081Z,20.89
2022-12-18T06:52:10.763Z,20.78
2022-12-18T06:54:40.619Z,20.76
2022-12-18T06:57:10.163Z,20.74
2022-12-18T06:59:39.656Z,20.51
2022-12-18T07:02:09.297Z,20.48
2022-12-18T07:04:39.409Z,20.48
2022-12-18T07:07:08.912Z,20.47
2022-12-18T07:09:38.488Z,20.44
2022-12-18T07:12:08.914Z,20.43
2022-12-18T07:14:38.853Z,20.45
2022-12-18T07:17:08.645Z,20.43
2022-12-18T07:19:38.288Z,20.47
2022-12-18T07:22:07.795Z,20.54
2022-12-18T07:24:37.583Z,20.61
2022-12-18T07:27:07.143Z,20.59
2022-12-18T07:29:38.442Z,20.55
2022-12-18T07:32:09.356Z,20.58
2022-12-18T07:34:38.976Z,20.57
2022-12-18T07:37:08.617Z,20.68
2022-12-18T07:39:38.249Z,20.58
2022-12-18T07:42:26.342Z,20.51
2022-12-18T07:44:57.072Z,20.47
2022-12-18T07:47:27.717Z,20.49
2022-12-18T07:49:59.296Z,20.38
2022-12-18T07:52:29.615Z,20.33
2022-12-18T07:54:59.408Z,20.40
2022-12-18T08:00:19.769Z,20.45
2022-12-18T08:02:51.969Z,20.45
2022-12-18T08:05:22.955Z,20.43
2022-12-18T08:07:52.755Z,20.35
2022-12-18T08:10:22.684Z,20.48
2022-12-18T08:12:53.789Z,20.49
2022-12-18T08:15:23.693Z,20.54
2022-12-18T08:17:53.509Z,20.63
2022-12-18T08:20:23.019Z,20.67
2022-12-18T08:22:53.449Z,20.65
2022-12-18T08:25:22.960Z,20.75
2022-12-18T08:27:52.449Z,20.79
2022-12-18T08:30:21.948Z,20.76
2022-12-18T08:32:55.744Z,20.64
2022-12-18T08:35:25.850Z,20.67
2022-12-18T08:37:55.555Z,20.78
2022-12-18T08:40:25.016Z,20.78
2022-12-18T08:43:12.827Z,20.81
2022-12-18T08:45:43.003Z,20.79
2022-12-18T08:48:17.822Z,20.82
2022-12-18T08:51:00.675Z,20.88
2022-12-18T08:53:34.150Z,20.86
2022-12-18T08:56:06.467Z,20.78
2022-12-18T08:58:36.570Z,20.82
2022-12-18T09:01:11.526Z,20.86
2022-12-18T09:03:41.862Z,20.91
2022-12-18T09:06:16.219Z,20.88
2022-12-18T09:08:49.490Z,20.88
2022-12-18T09:11:25.278Z,20.81
2022-12-18T09:13:56.473Z,20.81
2022-12-18T09:16:32.001Z,20.85
2022-12-18T09:19:03.511Z,20.81
2022-12-18T09:21:37.078Z,20.79
2022-12-18T09:24:08.913Z,20.81
2022-12-18T09:26:39.546Z,20.85
2022-12-18T09:29:10.886Z,20.89
2022-12-18T09:31:41.584Z,20.94
2022-12-18T09:34:11.131Z,20.94
2022-12-18T09:36:41.560Z,20.85
2022-12-18T09:39:11.572Z,20.79
2022-12-18T09:41:55.551Z,20.86
2022-12-18T09:44:46.160Z,20.78
2022-12-18T09:47:40.164Z,20.88
2022-12-18T09:50:31.801Z,20.98
2022-12-18T09:53:25.736Z,20.98
2022-12-18T09:55:56.727Z,20.82
2022-12-18T09:58:34.723Z,20.84
2022-12-18T10:01:04.681Z,20.69
2022-12-18T10:03:34.754Z,20.64
2022-12-18T10:06:08.057Z,20.57
2022-12-18T10:09:12.422Z,20.64
2022-12-18T10:11:54.776Z,20.81
2022-12-18T10:14:34.175Z,20.91
2022-12-18T10:17:16.154Z,20.94
2022-12-18T10:19:58.049Z,21.00
2022-12-18T10:22:33.819Z,20.94
2022-12-18T10:25:18.662Z,20.89
2022-12-18T10:27:48.790Z,20.86
2022-12-18T10:30:23.150Z,20.75
2022-12-18T10:32:53.279Z,20.65
2022-12-18T10:35:29.166Z,20.61
2022-12-18T10:38:19.287Z,20.59
2022-12-18T10:40:53.839Z,20.51
2022-12-18T10:43:39.855Z,20.51
2022-12-18T10:46:12.238Z,20.49
2022-12-18T10:48:49.737Z,20.43
2022-12-18T10:51:39.411Z,20.33
2022-12-18T10:54:24.542Z,20.31
2022-12-18T10:56:53.830Z,20.35
2022-12-18T10:59:23.649Z,20.38
2022-12-18T11:01:53.630Z,20.28
2022-12-18T11:04:37.485Z,20.10
2022-12-18T11:07:10.337Z,20.09
2022-12-18T11:09:42.337Z,20.13
2022-12-18T11:12:22.319Z,20.05
2022-12-18T11:14:55.295Z,20.03
2022-12-18T11:17:31.201Z,20.06
2022-12-18T11:20:09.039Z,20.12
2022-12-18T11:22:40.533Z,20.06
2022-12-18T11:25:32.304Z,20.12
2022-12-18T11:28:27.338Z,20.12
2022-12-18T11:31:17.311Z,19.97
2022-12-18T11:37:02.052Z,19.98
2022-12-18T11:40:03.936Z,19.90
2022-12-18T11:42:38.172Z,19.87
2022-12-18T11:45:23.361Z,19.85
2022-12-18T11:47:58.473Z,19.93
2022-12-18T11:50:30.890Z,20.17
2022-12-18T11:53:05.468Z,20.13
2022-12-18T11:56:25.190Z,20.14
2022-12-18T11:59:22.531Z,20.21
2022-12-18T12:02:18.358Z,20.23
2022-12-18T12:05:06.477Z,20.20
2022-12-18T12:08:06.816Z,20.26
2022-12-18T12:10:43.000Z,20.33
2022-12-18T12:13:27.482Z,20.33
2022-12-18T12:15:58.095Z,20.37
2022-12-18T12:18:55.646Z,20.13
2022-12-18T12:21:38.812Z,20.14
2022-12-18T12:24:23.664Z,20.13
2022-12-18T12:27:36.290Z,20.03
2022-12-18T12:30:21.015Z,20.03
2022-12-18T12:33:16.379Z,19.80
2022-12-18T12:36:09.448Z,19.54
2022-12-18T12:38:53.554Z,19.48
2022-12-18T12:41:46.843Z,19.54
2022-12-18T12:44:31.148Z,19.67
2022-12-18T12:47:07.125Z,19.79
2022-12-18T12:49:40.651Z,19.86
2022-12-18T12:52:19.050Z,19.77
2022-12-18T12:54:50.594Z,19.89
2022-12-18T12:57:37.770Z,19.98
2022-12-18T13:00:21.701Z,19.97
2022-12-18T13:03:02.068Z,19.87
2022-12-18T13:05:41.959Z,19.90
2022-12-18T13:08:15.483Z,20.01
2022-12-18T13:10:47.477Z,20.17
2022-12-18T13:13:23.774Z,20.07
2022-12-18T13:16:09.233Z,20.16
2022-12-18T13:18:39.392Z,20.14
2022-12-18T13:21:39.449Z,20.21
2022-12-18T13:24:25.029Z,20.34
2022-12-18T13:26:55.761Z,20.43
2022-12-18T13:29:46.875Z,20.81
2022-12-18T13:32:28.299Z,21.13
2022-12-18T13:35:33.478Z,21.68
2022-12-18T13:38:04.046Z,21.53
2022-12-18T13:40:43.638Z,21.12
2022-12-18T13:43:22.256Z,21.00
2022-12-18T13:46:02.795Z,21.03
2022-12-18T13:48:36.284Z,20.82
2022-12-18T13:51:12.308Z,20.64
2022-12-18T13:53:55.979Z,20.67
2022-12-18T13:56:29.571Z,20.75
2022-12-18T13:59:23.226Z,20.94
2022-12-18T14:01:58.404Z,20.82
2022-12-18T14:04:33.447Z,20.55
2022-12-18T14:07:25.261Z,20.48
2022-12-18T14:13:02.251Z,20.67
2022-12-18T14:15:44.672Z,21.07
2022-12-18T14:18:20.621Z,21.44
2022-12-18T14:21:01.249Z,21.91
2022-12-18T14:23:45.023Z,22.32
2022-12-18T14:26:32.862Z,22.53
2022-12-18T14:29:21.574Z,22.79
2022-12-18T14:32:18.760Z,22.93
2022-12-18T14:34:53.953Z,22.83
2022-12-18T14:37:27.046Z,22.77
2022-12-18T14:40:10.961Z,22.82
2022-12-18T14:42:41.606Z,22.55
2022-12-18T14:45:41.633Z,22.16
2022-12-18T14:48:36.085Z,22.36
2022-12-18T14:51:07.578Z,21.77
2022-12-18T14:53:40.207Z,21.50
2022-12-18T14:56:28.048Z,21.53
2022-12-18T14:58:58.997Z,21.27
2022-12-18T15:01:40.503Z,21.02
2022-12-18T15:04:31.316Z,20.94
2022-12-18T15:07:13.578Z,20.96
2022-12-18T15:10:12.903Z,21.12
2022-12-18T15:13:03.221Z,21.40
2022-12-18T15:15:36.208Z,21.63
2022-12-18T15:18:15.298Z,21.61
2022-12-18T15:21:12.102Z,21.56
2022-12-18T15:23:49.148Z,21.77
2022-12-18T15:26:21.791Z,21.85
2022-12-18T15:28:55.026Z,21.87
2022-12-18T15:31:26.715Z,22.08
2022-12-18T15:33:56.601Z,22.38
2022-12-18T15:36:27.586Z,22.57
2022-12-18T15:39:04.929Z,22.76
2022-12-18T15:41:38.581Z,23.01
2022-12-18T15:44:40.494Z,23.38
2022-12-18T15:47:15.605Z,23.75
2022-12-18T15:49:45.767Z,24.09
2022-12-18T15:52:27.833Z,25.19
2022-12-18T15:55:15.677Z,25.97
2022-12-18T15:57:45.773Z,25.93
2022-12-18T16:00:16.115Z,27.02
2022-12-18T16:02:46.268Z,25.81
2022-12-18T16:05:20.988Z,24.77
2022-12-18T16:07:51.289Z,24.70
2022-12-18T16:10:21.760Z,25.54
2022-12-18T16:12:51.350Z,26.02
2022-12-18T16:15:24.471Z,26.48
2022-12-18T16:17:54.870Z,26.59
2022-12-18T16:20:25.691Z,28.32
2022-12-18T16:22:56.091Z,26.85
2022-12-18T16:25:30.265Z,25.69
2022-12-18T16:28:00.424Z,25.26
2022-12-18T16:30:37.965Z,25.69
2022-12-18T16:33:08.872Z,25.04
2022-12-18T16:35:39.231Z,25.09
2022-12-18T16:38:08.953Z,27.03
2022-12-18T16:41:00.992Z,27.27
2022-12-18T16:43:31.815Z,27.29
2022-12-18T16:46:01.760Z,27.57
2022-12-18T16:48:31.316Z,26.79
2022-12-18T16:51:06.386Z,26.60
2022-12-18T16:53:37.506Z,27.00
2022-12-18T16:56:08.789Z,27.23
2022-12-18T16:58:38.425Z,26.73
2022-12-18T17:01:13.449Z,26.00
2022-12-18T17:03:44.323Z,26.32
2022-12-18T17:06:16.044Z,27.22
2022-12-18T17:08:47.038Z,27.51
2022-12-18T17:11:16.827Z,25.81
2022-12-18T17:13:47.172Z,25.01
2022-12-18T17:16:18.634Z,24.59
2022-12-18T17:18:48.517Z,24.46
2022-12-18T17:21:18.841Z,24.49
2022-12-18T17:23:48.513Z,24.27
2022-12-18T17:26:18.430Z,24.27
2022-12-18T17:28:49.229Z,24.24
2022-12-18T17:31:21.687Z,24.33
2022-12-18T17:33:52.862Z,24.54
2022-12-18T17:36:24.591Z,24.36
2022-12-18T17:38:57.316Z,24.21
2022-12-18T17:41:28.441Z,24.46
2022-12-18T17:44:00.788Z,24.84
2022-12-18T17:46:31.831Z,24.89
2022-12-18T17:49:04.062Z,25.01
2022-12-18T17:51:34.092Z,25.12
2022-12-18T17:54:03.651Z,24.89
2022-12-18T17:56:34.110Z,25.01
2022-12-18T17:59:03.872Z,24.77
2022-12-18T18:01:33.588Z,24.64
2022-12-18T18:04:05.032Z,24.43
2022-12-18T18:06:34.992Z,24.43
2022-12-18T18:09:16.303Z,24.34
2022-12-18T18:12:05.965Z,24.40
2022-12-18T18:14:36.173Z,23.98
2022-12-18T18:17:05.843Z,23.93
2022-12-18T18:19:35.803Z,23.92
2022-12-18T18:22:05.377Z,24.10
2022-12-18T18:24:35.376Z,24.63
2022-12-18T18:27:05.035Z,25.28
2022-12-18T18:29:34.813Z,25.32
2022-12-18T18:32:04.550Z,24.84
2022-12-18T18:34:34.360Z,24.39
2022-12-18T18:37:04.287Z,24.21
2022-12-18T18:39:33.858Z,24.47
2022-12-18T18:42:03.752Z,24.59
2022-12-18T18:44:33.566Z,24.40
2022-12-18T18:47:03.612Z,24.31
2022-12-18T18:49:36.455Z,24.10
2022-12-18T18:52:06.700Z,24.30
2022-12-18T18:54:36.409Z,24.64
2022-12-18T18:57:23.369Z,24.44
2022-12-18T18:59:55.694Z,24.26
2022-12-18T19:02:25.460Z,24.20
2022-12-18T19:04:55.117Z,24.12
2022-12-18T19:07:30.665Z,24.26
2022-12-18T19:10:04.719Z,24.71
2022-12-18T19:13:05.355Z,24.88
2022-12-18T19:15:36.050Z,24.54
2022-12-18T19:18:06.178Z,24.03
2022-12-18T19:20:36.866Z,23.92
2022-12-18T19:23:07.026Z,23.95
2022-12-18T19:25:41.611Z,24.24
2022-12-18T19:28:22.087Z,24.31
2022-12-18T19:30:58.991Z,24.26
2022-12-18T19:33:42.863Z,24.44
2022-12-18T19:36:22.435Z,24.53
2022-12-18T19:38:55.130Z,24.34
2022-12-18T19:41:26.034Z,24.50
2022-12-18T19:44:04.832Z,24.67
2022-12-18T19:46:41.638Z,24.85
2022-12-18T19:49:17.542Z,24.99
2022-12-18T19:51:47.979Z,24.91
2022-12-18T19:54:20.108Z,24.85
2022-12-18T19:56:50.050Z,24.80
2022-12-18T19:59:19.997Z,24.82
2022-12-18T20:01:51.448Z,24.72
2022-12-18T20:04:21.544Z,24.60
2022-12-18T20:06:55.303Z,24.53
2022-12-18T20:09:25.658Z,24.47
2022-12-18T20:11:56.987Z,24.36
2022-12-18T20:14:27.103Z,24.20
2022-12-18T20:16:57.379Z,24.13
2022-12-18T20:19:29.996Z,23.98
2022-12-18T20:21:59.741Z,23.63
2022-12-18T20:24:29.312Z,23.34
2022-12-18T20:26:58.887Z,23.25
2022-12-18T20:29:28.671Z,23.22
2022-12-18T20:31:58.258Z,23.31
2022-12-18T20:34:27.864Z,23.40
2022-12-18T20:36:57.995Z,23.14
2022-12-18T20:39:28.631Z,22.94
2022-12-18T20:41:59.375Z,23.04
2022-12-18T20:44:29.344Z,23.25
2022-12-18T20:47:01.575Z,23.34
2022-12-18T20:49:36.091Z,23.22
2022-12-18T20:52:07.581Z,23.30
2022-12-18T20:54:37.460Z,23.10
2022-12-18T20:57:07.009Z,23.14
2022-12-18T20:59:36.547Z,23.13
2022-12-18T21:02:06.202Z,23.08
2022-12-18T21:04:36.231Z,23.04
2022-12-18T21:07:05.834Z,22.92
2022-12-18T21:09:37.622Z,22.77
2022-12-18T21:12:34.945Z,22.76
2022-12-18T21:15:12.997Z,22.76
2022-12-18T21:17:44.799Z,22.86
2022-12-18T21:20:18.233Z,22.90
2022-12-18T21:22:50.379Z,22.92
2022-12-18T21:25:20.746Z,22.87
2022-12-18T21:27:50.327Z,22.99
2022-12-18T21:30:19.953Z,23.00
2022-12-18T21:32:49.633Z,22.99
2022-12-18T21:35:20.558Z,22.83
2022-12-18T21:37:52.113Z,22.83
2022-12-18T21:40:21.843Z,22.84
2022-12-18T21:43:09.918Z,22.76
2022-12-18T21:45:41.505Z,22.67
2022-12-18T21:48:11.095Z,22.57
2022-12-18T21:50:40.601Z,22.59
2022-12-18T21:53:10.256Z,22.49
2022-12-18T21:55:39.982Z,22.52
2022-12-18T21:58:09.526Z,22.49
2022-12-18T22:00:39.242Z,22.45
2022-12-18T22:03:17.743Z,22.43
2022-12-18T22:06:00.756Z,22.36
2022-12-18T22:08:40.944Z,22.28
2022-12-18T22:11:14.490Z,22.25
2022-12-18T22:13:45.593Z,22.22
2022-12-18T22:16:15.058Z,22.16
2022-12-18T22:18:44.952Z,22.11
2022-12-18T22:21:35.880Z,22.08
2022-12-18T22:24:12.206Z,22.00
2022-12-18T22:26:42.336Z,22.00
2022-12-18T22:29:43.923Z,21.97
2022-12-18T22:32:30.828Z,21.95
2022-12-18T22:35:08.055Z,21.85
2022-12-18T22:37:40.564Z,21.84
2022-12-18T22:40:23.895Z,21.77
2022-12-18T22:42:58.253Z,21.78
2022-12-18T22:45:29.404Z,21.80
2022-12-18T22:47:59.863Z,21.80
2022-12-18T22:50:29.579Z,21.70
2022-12-18T22:52:59.105Z,21.53
2022-12-18T22:55:28.682Z,21.37
2022-12-18T22:57:58.625Z,21.36
2022-12-18T23:00:28.498Z,21.42
2022-12-18T23:03:00.584Z,21.53
2022-12-18T23:05:31.845Z,21.61
2022-12-18T23:08:01.455Z,21.61
2022-12-18T23:10:31.394Z,21.61
2022-12-18T23:13:01.293Z,21.70
2022-12-18T23:15:31.199Z,21.67
2022-12-18T23:18:01.622Z,21.68
2022-12-18T23:20:31.151Z,21.68
2022-12-18T23:23:00.694Z,21.54
2022-12-18T23:25:30.265Z,21.56
2022-12-18T23:28:00.192Z,21.54
2022-12-18T23:30:29.705Z,21.50
2022-12-18T23:32:59.290Z,21.47
2022-12-18T23:35:29.199Z,21.44
2022-12-18T23:37:59.801Z,21.42
2022-12-18T23:40:31.777Z,21.30
2022-12-18T23:43:01.690Z,21.30
2022-12-18T23:45:31.429Z,21.27
2022-12-18T23:48:01.026Z,21.22
2022-12-18T23:50:30.573Z,21.10
2022-12-18T23:53:05.106Z,20.95
2022-12-18T23:55:45.423Z,20.81
2022-12-18T23:58:22.958Z,20.69
